sensor_id;sensor_type;location;lat;lon;timestamp;pressure;altitude;pressure_sealevel;temperature;humidity
56330;BME280;42236;48.058;10.632;2022-11-20T00:01:53;94159.34;;;4.50;93.43
56330;BME280;42236;48.058;10.632;2022-11-20T00:04:38;94162.50;;;4.52;93.57
56330;BME280;42236;48.058;10.632;2022-11-20T00:07:24;94163.28;;;4.53;93.47
56330;BME280;42236;48.058;10.632;2022-11-20T00:10:10;94165.94;;;4.53;93.88
56330;BME280;42236;48.058;10.632;2022-11-20T00:12:58;94164.03;;;4.53;93.48
56330;BME280;42236;48.058;10.632;2022-11-20T00:15:43;94160.25;;;4.54;93.82
56330;BME280;42236;48.058;10.632;2022-11-20T00:18:29;94166.72;;;4.53;94.06
56330;BME280;42236;48.058;10.632;2022-11-20T00:21:21;94160.25;;;4.54;93.79
56330;BME280;42236;48.058;10.632;2022-11-20T00:24:08;94167.97;;;4.56;93.35
56330;BME280;42236;48.058;10.632;2022-11-20T00:26:55;94174.56;;;4.58;93.42
56330;BME280;42236;48.058;10.632;2022-11-20T00:29:41;94181.03;;;4.57;93.22
56330;BME280;42236;48.058;10.632;2022-11-20T00:32:26;94178.03;;;4.59;93.50
56330;BME280;42236;48.058;10.632;2022-11-20T00:35:12;94175.06;;;4.60;93.26
56330;BME280;42236;48.058;10.632;2022-11-20T00:37:58;94181.97;;;4.61;93.11
56330;BME280;42236;48.058;10.632;2022-11-20T00:40:43;94180.41;;;4.60;93.08
56330;BME280;42236;48.058;10.632;2022-11-20T00:43:29;94187.16;;;4.58;93.01
56330;BME280;42236;48.058;10.632;2022-11-20T00:46:17;94190.13;;;4.56;92.99
56330;BME280;42236;48.058;10.632;2022-11-20T00:49:03;94189.34;;;4.56;93.17
56330;BME280;42236;48.058;10.632;2022-11-20T00:51:48;94194.53;;;4.52;93.31
56330;BME280;42236;48.058;10.632;2022-11-20T00:54:34;94191.06;;;4.52;93.26
56330;BME280;42236;48.058;10.632;2022-11-20T00:57:20;94193.72;;;4.52;93.21
56330;BME280;42236;48.058;10.632;2022-11-20T01:00:06;94195.31;;;4.53;93.43
56330;BME280;42236;48.058;10.632;2022-11-20T01:02:51;94194.53;;;4.52;92.91
56330;BME280;42236;48.058;10.632;2022-11-20T01:05:37;94199.72;;;4.48;92.92
56330;BME280;42236;48.058;10.632;2022-11-20T01:08:23;94193.59;;;4.48;92.89
56330;BME280;42236;48.058;10.632;2022-11-20T01:11:14;94199.72;;;4.48;92.67
56330;BME280;42236;48.058;10.632;2022-11-20T01:14:01;94197.22;;;4.52;92.66
56330;BME280;42236;48.058;10.632;2022-11-20T01:16:51;94202.06;;;4.50;92.27
56330;BME280;42236;48.058;10.632;2022-11-20T01:19:36;94197.50;;;4.51;92.48
56330;BME280;42236;48.058;10.632;2022-11-20T01:22:22;94193.59;;;4.48;92.39
56330;BME280;42236;48.058;10.632;2022-11-20T01:25:08;94201.75;;;4.43;92.50
56330;BME280;42236;48.058;10.632;2022-11-20T01:27:53;94213.84;;;4.40;92.47
56330;BME280;42236;48.058;10.632;2022-11-20T01:30:39;94202.38;;;4.40;92.87
56330;BME280;42236;48.058;10.632;2022-11-20T01:33:25;94201.41;;;4.36;92.24
56330;BME280;42236;48.058;10.632;2022-11-20T01:36:12;94198.91;;;4.31;91.78
56330;BME280;42236;48.058;10.632;2022-11-20T01:39:00;94203.91;;;4.23;91.88
56330;BME280;42236;48.058;10.632;2022-11-20T01:41:47;94204.34;;;4.17;91.97
56330;BME280;42236;48.058;10.632;2022-11-20T01:44:57;94213.28;;;4.12;92.09
56330;BME280;42236;48.058;10.632;2022-11-20T01:47:44;94202.13;;;4.10;92.36
56330;BME280;42236;48.058;10.632;2022-11-20T01:50:31;94208.72;;;4.13;92.42
56330;BME280;42236;48.058;10.632;2022-11-20T01:53:21;94203.88;;;4.15;92.62
56330;BME280;42236;48.058;10.632;2022-11-20T01:56:11;94214.75;;;4.18;92.25
56330;BME280;42236;48.058;10.632;2022-11-20T01:59:00;94204.06;;;4.18;92.40
56330;BME280;42236;48.058;10.632;2022-11-20T02:01:47;94205.13;;;4.17;92.60
56330;BME280;42236;48.058;10.632;2022-11-20T02:04:33;94200.28;;;4.19;92.86
56330;BME280;42236;48.058;10.632;2022-11-20T02:07:19;94202.94;;;4.19;92.49
56330;BME280;42236;48.058;10.632;2022-11-20T02:10:05;94196.19;;;4.22;92.53
56330;BME280;42236;48.058;10.632;2022-11-20T02:12:52;94200.91;;;4.25;92.41
56330;BME280;42236;48.058;10.632;2022-11-20T02:15:56;94192.59;;;4.26;92.38
56330;BME280;42236;48.058;10.632;2022-11-20T02:18:43;94199.97;;;4.30;92.16
56330;BME280;42236;48.058;10.632;2022-11-20T02:24:39;94196.72;;;4.33;92.19
56330;BME280;42236;48.058;10.632;2022-11-20T02:27:27;94190.56;;;4.32;91.80
56330;BME280;42236;48.058;10.632;2022-11-20T02:30:12;94189.16;;;4.35;91.85
56330;BME280;42236;48.058;10.632;2022-11-20T02:32:58;94191.53;;;4.36;91.53
56330;BME280;42236;48.058;10.632;2022-11-20T02:35:47;94188.06;;;4.36;91.51
56330;BME280;42236;48.058;10.632;2022-11-20T02:38:33;94193.88;;;4.38;91.33
56330;BME280;42236;48.058;10.632;2022-11-20T02:41:18;94193.25;;;4.41;91.48
56330;BME280;42236;48.058;10.632;2022-11-20T02:44:05;94197.81;;;4.40;91.34
56330;BME280;42236;48.058;10.632;2022-11-20T02:46:51;94199.38;;;4.41;91.20
56330;BME280;42236;48.058;10.632;2022-11-20T02:49:36;94196.72;;;4.41;91.50
56330;BME280;42236;48.058;10.632;2022-11-20T02:52:22;94197.03;;;4.40;91.23
56330;BME280;42236;48.058;10.632;2022-11-20T02:55:08;94189.47;;;4.42;91.30
56330;BME280;42236;48.058;10.632;2022-11-20T02:57:53;94197.81;;;4.40;91.07
56330;BME280;42236;48.058;10.632;2022-11-20T03:00:39;94194.81;;;4.42;91.16
56330;BME280;42236;48.058;10.632;2022-11-20T03:03:24;94204.41;;;4.43;91.17
56330;BME280;42236;48.058;10.632;2022-11-20T03:06:10;94202.53;;;4.43;91.51
56330;BME280;42236;48.058;10.632;2022-11-20T03:08:56;94201.75;;;4.43;90.92
56330;BME280;42236;48.058;10.632;2022-11-20T03:11:42;94196.41;;;4.43;91.17
56330;BME280;42236;48.058;10.632;2022-11-20T03:14:28;94200.16;;;4.42;91.23
56330;BME280;42236;48.058;10.632;2022-11-20T03:17:13;94195.94;;;4.41;91.31
56330;BME280;42236;48.058;10.632;2022-11-20T03:19:59;94195.16;;;4.40;91.44
56330;BME280;42236;48.058;10.632;2022-11-20T03:22:44;94190.41;;;4.37;91.27
56330;BME280;42236;48.058;10.632;2022-11-20T03:25:30;94190.09;;;4.39;91.35
56330;BME280;42236;48.058;10.632;2022-11-20T03:28:16;94194.66;;;4.38;91.44
56330;BME280;42236;48.058;10.632;2022-11-20T03:31:09;94193.88;;;4.38;91.48
56330;BME280;42236;48.058;10.632;2022-11-20T03:33:56;94193.72;;;4.34;91.19
56330;BME280;42236;48.058;10.632;2022-11-20T03:36:43;94195.13;;;4.32;91.36
56330;BME280;42236;48.058;10.632;2022-11-20T03:39:28;94190.91;;;4.31;91.18
56330;BME280;42236;48.058;10.632;2022-11-20T03:42:14;94201.09;;;4.28;91.06
56330;BME280;42236;48.058;10.632;2022-11-20T03:45:18;94193.38;;;4.27;90.79
56330;BME280;42236;48.058;10.632;2022-11-20T03:48:04;94187.25;;;4.26;90.68
56330;BME280;42236;48.058;10.632;2022-11-20T03:50:51;94196.38;;;4.25;90.61
56330;BME280;42236;48.058;10.632;2022-11-20T03:53:38;94186.97;;;4.28;90.67
56330;BME280;42236;48.058;10.632;2022-11-20T03:56:26;94197.94;;;4.26;90.29
56330;BME280;42236;48.058;10.632;2022-11-20T03:59:12;94197.31;;;4.30;90.63
56330;BME280;42236;48.058;10.632;2022-11-20T04:01:58;94202.97;;;4.28;90.51
56330;BME280;42236;48.058;10.632;2022-11-20T04:04:43;94196.72;;;4.33;90.60
56330;BME280;42236;48.058;10.632;2022-11-20T04:07:29;94196.72;;;4.33;90.52
56330;BME280;42236;48.058;10.632;2022-11-20T04:10:15;94187.59;;;4.34;90.62
56330;BME280;42236;48.058;10.632;2022-11-20T04:13:00;94186.03;;;4.33;90.66
56330;BME280;42236;48.058;10.632;2022-11-20T04:15:46;94186.03;;;4.33;90.46
56330;BME280;42236;48.058;10.632;2022-11-20T04:18:32;94190.56;;;4.32;90.62
56330;BME280;42236;48.058;10.632;2022-11-20T04:21:18;94192.94;;;4.34;90.71
56330;BME280;42236;48.058;10.632;2022-11-20T04:24:04;94192.94;;;4.34;90.65
56330;BME280;42236;48.058;10.632;2022-11-20T04:26:49;94188.69;;;4.33;90.83
56330;BME280;42236;48.058;10.632;2022-11-20T04:29:35;94194.81;;;4.33;91.21
56330;BME280;42236;48.058;10.632;2022-11-20T04:32:21;94181.78;;;4.32;91.51
56330;BME280;42236;48.058;10.632;2022-11-20T04:35:06;94185.06;;;4.28;91.54
56330;BME280;42236;48.058;10.632;2022-11-20T04:37:52;94189.63;;;4.28;91.67
56330;BME280;42236;48.058;10.632;2022-11-20T04:40:38;94195.75;;;4.28;91.44
56330;BME280;42236;48.058;10.632;2022-11-20T04:43:23;94188.22;;;4.31;91.43
56330;BME280;42236;48.058;10.632;2022-11-20T04:46:09;94191.97;;;4.30;91.18
56330;BME280;42236;48.058;10.632;2022-11-20T04:48:55;94181.16;;;4.26;91.29
56330;BME280;42236;48.058;10.632;2022-11-20T04:51:41;94184.75;;;4.21;90.75
56330;BME280;42236;48.058;10.632;2022-11-20T04:54:26;94185.81;;;4.20;90.57
56330;BME280;42236;48.058;10.632;2022-11-20T04:57:12;94193.84;;;4.20;90.49
56330;BME280;42236;48.058;10.632;2022-11-20T04:59:58;94196.06;;;4.18;89.87
56330;BME280;42236;48.058;10.632;2022-11-20T05:02:44;94202.00;;;4.15;89.97
56330;BME280;42236;48.058;10.632;2022-11-20T05:05:29;94203.56;;;4.16;89.80
56330;BME280;42236;48.058;10.632;2022-11-20T05:08:15;94191.31;;;4.15;89.71
56330;BME280;42236;48.058;10.632;2022-11-20T05:11:06;94202.47;;;4.17;89.71
56330;BME280;42236;48.058;10.632;2022-11-20T05:13:53;94196.06;;;4.18;89.13
56330;BME280;42236;48.058;10.632;2022-11-20T05:16:38;94197.31;;;4.21;89.32
56330;BME280;42236;48.058;10.632;2022-11-20T05:19:24;94197.59;;;4.19;89.09
56330;BME280;42236;48.058;10.632;2022-11-20T05:22:09;94204.84;;;4.19;89.01
56330;BME280;42236;48.058;10.632;2022-11-20T05:24:55;94198.25;;;4.16;89.18
56330;BME280;42236;48.058;10.632;2022-11-20T05:27:41;94205.13;;;4.17;89.48
56330;BME280;42236;48.058;10.632;2022-11-20T05:30:26;94202.00;;;4.15;89.75
56330;BME280;42236;48.058;10.632;2022-11-20T05:33:12;94203.56;;;4.16;90.33
56330;BME280;42236;48.058;10.632;2022-11-20T05:35:58;94205.13;;;4.17;90.35
56330;BME280;42236;48.058;10.632;2022-11-20T05:38:44;94211.09;;;4.14;90.52
56330;BME280;42236;48.058;10.632;2022-11-20T05:41:29;94207.31;;;4.15;90.88
56330;BME280;42236;48.058;10.632;2022-11-20T05:44:15;94204.66;;;4.15;90.42
56330;BME280;42236;48.058;10.632;2022-11-20T05:47:01;94204.22;;;4.13;90.93
56330;BME280;42236;48.058;10.632;2022-11-20T05:49:46;94199.66;;;4.14;90.73
56330;BME280;42236;48.058;10.632;2022-11-20T05:52:32;94198.06;;;4.13;90.95
56330;BME280;42236;48.058;10.632;2022-11-20T05:55:18;94193.34;;;4.10;90.96
56330;BME280;42236;48.058;10.632;2022-11-20T05:58:03;94182.03;;;4.04;91.20
56330;BME280;42236;48.058;10.632;2022-11-20T06:00:49;94177.28;;;4.01;91.14
56330;BME280;42236;48.058;10.632;2022-11-20T06:03:35;94182.47;;;3.97;91.04
56330;BME280;42236;48.058;10.632;2022-11-20T06:06:21;94192.84;;;3.99;91.31
56330;BME280;42236;48.058;10.632;2022-11-20T06:09:07;94189.09;;;4.00;91.28
56330;BME280;42236;48.058;10.632;2022-11-20T06:11:52;94195.97;;;4.01;91.30
56330;BME280;42236;48.058;10.632;2022-11-20T06:14:38;94191.91;;;4.03;91.01
56330;BME280;42236;48.058;10.632;2022-11-20T06:17:24;94197.25;;;4.03;90.75
56330;BME280;42236;48.058;10.632;2022-11-20T06:20:09;94197.56;;;4.02;90.57
56330;BME280;42236;48.058;10.632;2022-11-20T06:22:55;94210.00;;;4.06;90.65
56330;BME280;42236;48.058;10.632;2022-11-20T06:25:42;94211.53;;;4.07;90.53
56330;BME280;42236;48.058;10.632;2022-11-20T06:28:28;94207.00;;;4.08;90.62
56330;BME280;42236;48.058;10.632;2022-11-20T06:31:15;94215.19;;;4.12;90.24
56330;BME280;42236;48.058;10.632;2022-11-20T06:34:01;94214.88;;;4.13;90.37
56330;BME280;42236;48.058;10.632;2022-11-20T06:36:47;94218.00;;;4.15;90.08
56330;BME280;42236;48.058;10.632;2022-11-20T06:39:33;94220.06;;;4.18;90.11
56330;BME280;42236;48.058;10.632;2022-11-20T06:42:18;94216.59;;;4.18;90.09
56330;BME280;42236;48.058;10.632;2022-11-20T06:45:04;94217.41;;;4.18;89.96
56330;BME280;42236;48.058;10.632;2022-11-20T06:47:50;94221.34;;;4.21;90.22
56330;BME280;42236;48.058;10.632;2022-11-20T06:50:37;94231.22;;;4.20;90.07
56330;BME280;42236;48.058;10.632;2022-11-20T06:53:23;94228.88;;;4.19;90.08
56330;BME280;42236;48.058;10.632;2022-11-20T06:56:09;94231.22;;;4.20;90.13
56330;BME280;42236;48.058;10.632;2022-11-20T06:58:54;94225.88;;;4.20;90.34
56330;BME280;42236;48.058;10.632;2022-11-20T07:01:40;94234.34;;;4.22;89.98
56330;BME280;42236;48.058;10.632;2022-11-20T07:04:26;94242.56;;;4.26;89.88
56330;BME280;42236;48.058;10.632;2022-11-20T07:07:11;94238.47;;;4.28;89.98
56330;BME280;42236;48.058;10.632;2022-11-20T07:09:57;94241.63;;;4.31;89.69
56330;BME280;42236;48.058;10.632;2022-11-20T07:12:49;94244.78;;;4.33;89.37
56330;BME280;42236;48.058;10.632;2022-11-20T07:15:35;94247.91;;;4.35;89.49
56330;BME280;42236;48.058;10.632;2022-11-20T07:18:21;94235.03;;;4.37;89.35
56330;BME280;42236;48.058;10.632;2022-11-20T07:21:08;94238.81;;;4.36;88.75
56330;BME280;42236;48.058;10.632;2022-11-20T07:23:54;94244.16;;;4.36;88.76
56330;BME280;42236;48.058;10.632;2022-11-20T07:26:40;94251.22;;;4.40;88.78
56330;BME280;42236;48.058;10.632;2022-11-20T07:29:26;94244.63;;;4.38;88.42
56330;BME280;42236;48.058;10.632;2022-11-20T07:32:11;94256.72;;;4.44;88.75
56330;BME280;42236;48.058;10.632;2022-11-20T07:34:57;94239.00;;;4.48;88.83
56330;BME280;42236;48.058;10.632;2022-11-20T07:37:42;94250.94;;;4.51;88.64
56330;BME280;42236;48.058;10.632;2022-11-20T07:40:28;94256.44;;;4.54;88.58
56330;BME280;42236;48.058;10.632;2022-11-20T07:43:14;94254.22;;;4.56;88.13
56330;BME280;42236;48.058;10.632;2022-11-20T07:45:59;94245.28;;;4.61;87.92
56330;BME280;42236;48.058;10.632;2022-11-20T07:48:45;94250.19;;;4.67;88.04
56330;BME280;42236;48.058;10.632;2022-11-20T07:51:31;94256.47;;;4.72;87.64
56330;BME280;42236;48.058;10.632;2022-11-20T07:54:16;94256.81;;;4.79;87.79
56330;BME280;42236;48.058;10.632;2022-11-20T07:57:02;94243.28;;;4.84;87.34
56330;BME280;42236;48.058;10.632;2022-11-20T07:59:48;94245.03;;;4.88;87.32
56330;BME280;42236;48.058;10.632;2022-11-20T08:02:33;94243.28;;;4.92;86.74
56330;BME280;42236;48.058;10.632;2022-11-20T08:05:19;94249.09;;;4.95;86.75
56330;BME280;42236;48.058;10.632;2022-11-20T08:08:05;94250.69;;;4.96;86.61
56330;BME280;42236;48.058;10.632;2022-11-20T08:10:52;94256.19;;;4.99;86.18
56330;BME280;42236;48.058;10.632;2022-11-20T08:13:38;94251.78;;;5.03;85.90
56330;BME280;42236;48.058;10.632;2022-11-20T08:16:48;94249.88;;;5.04;84.95
56330;BME280;42236;48.058;10.632;2022-11-20T08:19:34;94251.00;;;5.11;85.99
56330;BME280;42236;48.058;10.632;2022-11-20T08:22:19;94250.81;;;5.17;86.02
56330;BME280;42236;48.058;10.632;2022-11-20T08:25:06;94258.53;;;5.18;85.47
56330;BME280;42236;48.058;10.632;2022-11-20T08:27:52;94250.22;;;5.20;85.20
56330;BME280;42236;48.058;10.632;2022-11-20T08:30:37;94254.16;;;5.22;85.32
56330;BME280;42236;48.058;10.632;2022-11-20T08:33:23;94263.56;;;5.28;84.99
56330;BME280;42236;48.058;10.632;2022-11-20T08:36:09;94257.75;;;5.35;84.80
56330;BME280;42236;48.058;10.632;2022-11-20T08:38:55;94252.22;;;5.40;84.41
56330;BME280;42236;48.058;10.632;2022-11-20T08:41:41;94252.53;;;5.47;84.83
56330;BME280;42236;48.058;10.632;2022-11-20T08:44:26;94258.53;;;5.44;84.12
56330;BME280;42236;48.058;10.632;2022-11-20T08:47:12;94254.25;;;5.52;84.85
56330;BME280;42236;48.058;10.632;2022-11-20T08:49:58;94257.88;;;5.56;84.60
56330;BME280;42236;48.058;10.632;2022-11-20T08:52:43;94252.38;;;5.52;84.16
56330;BME280;42236;48.058;10.632;2022-11-20T08:55:29;94261.66;;;5.55;84.30
56330;BME280;42236;48.058;10.632;2022-11-20T08:58:14;94250.63;;;5.56;84.34
56330;BME280;42236;48.058;10.632;2022-11-20T09:01:00;94257.06;;;5.55;83.98
56330;BME280;42236;48.058;10.632;2022-11-20T09:03:46;94258.50;;;5.62;84.33
56330;BME280;42236;48.058;10.632;2022-11-20T09:06:32;94257.69;;;5.70;83.74
56330;BME280;42236;48.058;10.632;2022-11-20T09:09:18;94252.44;;;5.82;83.63
56330;BME280;42236;48.058;10.632;2022-11-20T09:12:04;94252.75;;;5.98;83.69
56330;BME280;42236;48.058;10.632;2022-11-20T09:14:50;94261.69;;;6.11;82.33
56330;BME280;42236;48.058;10.632;2022-11-20T09:17:35;94258.03;;;6.24;82.32
56330;BME280;42236;48.058;10.632;2022-11-20T09:20:21;94249.63;;;6.34;81.89
56330;BME280;42236;48.058;10.632;2022-11-20T09:23:07;94258.72;;;6.42;81.74
56330;BME280;42236;48.058;10.632;2022-11-20T09:25:53;94263.28;;;6.41;79.49
56330;BME280;42236;48.058;10.632;2022-11-20T09:28:41;94261.00;;;6.52;81.36
56330;BME280;42236;48.058;10.632;2022-11-20T09:31:26;94249.88;;;6.50;79.59
56330;BME280;42236;48.058;10.632;2022-11-20T09:34:12;94260.69;;;6.54;80.78
56330;BME280;42236;48.058;10.632;2022-11-20T09:36:58;94245.88;;;6.56;78.96
56330;BME280;42236;48.058;10.632;2022-11-20T09:39:43;94248.50;;;6.65;80.31
56330;BME280;42236;48.058;10.632;2022-11-20T09:45:37;94264.81;;;7.02;77.62
56330;BME280;42236;48.058;10.632;2022-11-20T09:48:55;94265.47;;;6.99;77.46
56330;BME280;42236;48.058;10.632;2022-11-20T09:51:46;94271.41;;;6.83;77.67
56330;BME280;42236;48.058;10.632;2022-11-20T09:54:37;94265.06;;;6.67;78.34
56330;BME280;42236;48.058;10.632;2022-11-20T09:57:40;94267.47;;;6.60;78.59
56330;BME280;42236;48.058;10.632;2022-11-20T10:00:27;94267.97;;;6.53;79.15
56330;BME280;42236;48.058;10.632;2022-11-20T10:03:21;94268.84;;;6.36;78.62
56330;BME280;42236;48.058;10.632;2022-11-20T10:06:15;94254.22;;;6.25;78.74
56330;BME280;42236;48.058;10.632;2022-11-20T10:12:14;94260.47;;;6.00;78.05
56330;BME280;42236;48.058;10.632;2022-11-20T10:15:17;94273.72;;;5.87;79.36
56330;BME280;42236;48.058;10.632;2022-11-20T10:18:14;94276.22;;;5.84;79.51
56330;BME280;42236;48.058;10.632;2022-11-20T10:21:08;94270.56;;;5.76;79.32
56330;BME280;42236;48.058;10.632;2022-11-20T10:27:15;94263.84;;;5.70;78.22
56330;BME280;42236;48.058;10.632;2022-11-20T10:30:12;94254.81;;;5.75;78.23
56330;BME280;42236;48.058;10.632;2022-11-20T10:33:05;94258.47;;;5.70;77.58
56330;BME280;42236;48.058;10.632;2022-11-20T10:36:09;94261.78;;;5.76;77.69
56330;BME280;42236;48.058;10.632;2022-11-20T10:39:18;94257.03;;;5.82;76.63
56330;BME280;42236;48.058;10.632;2022-11-20T10:42:11;94252.28;;;5.96;77.81
56330;BME280;42236;48.058;10.632;2022-11-20T10:45:11;94258.09;;;6.07;76.62
56330;BME280;42236;48.058;10.632;2022-11-20T10:51:21;94254.84;;;6.31;75.70
56330;BME280;42236;48.058;10.632;2022-11-20T10:54:25;94253.97;;;6.48;74.40
56330;BME280;42236;48.058;10.632;2022-11-20T11:00:31;94245.56;;;6.58;75.10
56330;BME280;42236;48.058;10.632;2022-11-20T11:03:23;94247.97;;;6.51;74.56
56330;BME280;42236;48.058;10.632;2022-11-20T11:09:19;94241.19;;;6.45;75.79
56330;BME280;42236;48.058;10.632;2022-11-20T11:12:09;94226.75;;;6.37;76.19
56330;BME280;42236;48.058;10.632;2022-11-20T11:14:56;94236.22;;;6.34;76.31
56330;BME280;42236;48.058;10.632;2022-11-20T11:17:46;94244.13;;;6.31;76.52
56330;BME280;42236;48.058;10.632;2022-11-20T11:20:32;94239.75;;;6.17;77.15
56330;BME280;42236;48.058;10.632;2022-11-20T11:23:35;94227.69;;;6.03;78.21
56330;BME280;42236;48.058;10.632;2022-11-20T11:26:23;94232.47;;;5.97;79.35
56330;BME280;42236;48.058;10.632;2022-11-20T11:29:17;94229.78;;;5.88;80.42
56330;BME280;42236;48.058;10.632;2022-11-20T11:32:41;94242.22;;;5.84;80.07
56330;BME280;42236;48.058;10.632;2022-11-20T11:35:25;94243.97;;;5.80;80.62
56330;BME280;42236;48.058;10.632;2022-11-20T11:38:15;94238.50;;;5.68;81.78
56330;BME280;42236;48.058;10.632;2022-11-20T11:41:04;94233.47;;;5.57;82.65
56330;BME280;42236;48.058;10.632;2022-11-20T11:43:54;94235.38;;;5.57;83.64
56330;BME280;42236;48.058;10.632;2022-11-20T11:47:19;94229.22;;;5.56;83.57
56330;BME280;42236;48.058;10.632;2022-11-20T11:53:08;94226.50;;;5.74;84.33
56330;BME280;42236;48.058;10.632;2022-11-20T11:56:08;94224.78;;;5.69;84.01
56330;BME280;42236;48.058;10.632;2022-11-20T11:58:57;94221.16;;;5.74;83.77
56330;BME280;42236;48.058;10.632;2022-11-20T12:01:55;94204.63;;;5.72;83.41
56330;BME280;42236;48.058;10.632;2022-11-20T12:04:54;94211.88;;;5.71;84.09
56330;BME280;42236;48.058;10.632;2022-11-20T12:07:46;94210.16;;;5.67;83.44
56330;BME280;42236;48.058;10.632;2022-11-20T12:13:28;94201.31;;;5.75;83.51
56330;BME280;42236;48.058;10.632;2022-11-20T12:16:18;94208.06;;;5.81;83.63
56330;BME280;42236;48.058;10.632;2022-11-20T12:19:10;94196.88;;;5.79;82.85
56330;BME280;42236;48.058;10.632;2022-11-20T12:22:02;94195.16;;;5.83;83.04
56330;BME280;42236;48.058;10.632;2022-11-20T12:25:08;94189.63;;;5.88;82.94
56330;BME280;42236;48.058;10.632;2022-11-20T12:31:14;94196.88;;;5.88;82.89
56330;BME280;42236;48.058;10.632;2022-11-20T12:37:57;94201.25;;;5.92;83.00
56330;BME280;42236;48.058;10.632;2022-11-20T12:47:29;94199.66;;;5.91;83.08
56330;BME280;42236;48.058;10.632;2022-11-20T12:50:31;94196.84;;;5.96;83.42
56330;BME280;42236;48.058;10.632;2022-11-20T13:02:30;94193.84;;;5.98;83.25
56330;BME280;42236;48.058;10.632;2022-11-20T13:08:27;94193.03;;;6.06;83.11
56330;BME280;42236;48.058;10.632;2022-11-20T13:17:20;94182.94;;;6.12;83.46
56330;BME280;42236;48.058;10.632;2022-11-20T13:20:14;94181.63;;;6.18;83.54
56330;BME280;42236;48.058;10.632;2022-11-20T13:23:00;94188.56;;;6.19;83.56
56330;BME280;42236;48.058;10.632;2022-11-20T13:25:46;94178.81;;;6.14;83.04
56330;BME280;42236;48.058;10.632;2022-11-20T13:28:33;94187.03;;;6.09;82.86
56330;BME280;42236;48.058;10.632;2022-11-20T13:31:30;94173.88;;;5.95;82.55
56330;BME280;42236;48.058;10.632;2022-11-20T13:34:24;94177.34;;;5.87;83.01
56330;BME280;42236;48.058;10.632;2022-11-20T13:37:25;94169.03;;;5.80;83.15
56330;BME280;42236;48.058;10.632;2022-11-20T13:40:19;94164.13;;;5.82;83.14
56330;BME280;42236;48.058;10.632;2022-11-20T13:43:21;94164.78;;;5.79;83.63
56330;BME280;42236;48.058;10.632;2022-11-20T13:46:09;94156.91;;;5.74;83.93
56330;BME280;42236;48.058;10.632;2022-11-20T13:48:55;94165.13;;;5.69;83.90
56330;BME280;42236;48.058;10.632;2022-11-20T13:51:50;94153.50;;;5.65;83.92
56330;BME280;42236;48.058;10.632;2022-11-20T13:55:11;94159.63;;;5.65;84.01
56330;BME280;42236;48.058;10.632;2022-11-20T14:01:08;94154.91;;;5.71;84.69
56330;BME280;42236;48.058;10.632;2022-11-20T14:03:55;94149.38;;;5.76;84.23
56330;BME280;42236;48.058;10.632;2022-11-20T14:06:43;94140.88;;;5.74;84.20
56330;BME280;42236;48.058;10.632;2022-11-20T14:09:31;94144.00;;;5.76;84.16
56330;BME280;42236;48.058;10.632;2022-11-20T14:12:19;94140.03;;;5.82;83.90
56330;BME280;42236;48.058;10.632;2022-11-20T14:15:05;94133.41;;;5.88;83.70
56330;BME280;42236;48.058;10.632;2022-11-20T14:17:51;94142.38;;;5.92;84.20
56330;BME280;42236;48.058;10.632;2022-11-20T14:20:38;94138.88;;;6.01;83.57
56330;BME280;42236;48.058;10.632;2022-11-20T14:23:28;94140.44;;;6.02;82.41
56330;BME280;42236;48.058;10.632;2022-11-20T14:26:18;94150.53;;;6.05;83.11
56330;BME280;42236;48.058;10.632;2022-11-20T14:29:05;94149.47;;;5.97;82.73
56330;BME280;42236;48.058;10.632;2022-11-20T14:31:52;94153.38;;;5.91;82.88
56330;BME280;42236;48.058;10.632;2022-11-20T14:34:40;94156.84;;;5.91;83.04
56330;BME280;42236;48.058;10.632;2022-11-20T14:37:28;94146.44;;;5.98;83.01
56330;BME280;42236;48.058;10.632;2022-11-20T14:40:25;94146.25;;;6.04;82.70
56330;BME280;42236;48.058;10.632;2022-11-20T14:43:24;94142.53;;;5.96;82.06
56330;BME280;42236;48.058;10.632;2022-11-20T14:46:10;94149.47;;;5.97;82.56
56330;BME280;42236;48.058;10.632;2022-11-20T14:49:00;94148.50;;;5.93;82.80
56330;BME280;42236;48.058;10.632;2022-11-20T14:51:46;94149.00;;;5.86;82.83
56330;BME280;42236;48.058;10.632;2022-11-20T14:54:43;94143.03;;;5.81;82.89
56330;BME280;42236;48.058;10.632;2022-11-20T15:03:02;94145.16;;;5.66;83.08
56330;BME280;42236;48.058;10.632;2022-11-20T15:05:49;94142.66;;;5.61;83.20
56330;BME280;42236;48.058;10.632;2022-11-20T15:08:35;94142.50;;;5.57;83.27
56330;BME280;42236;48.058;10.632;2022-11-20T15:11:27;94144.41;;;5.48;83.10
56330;BME280;42236;48.058;10.632;2022-11-20T15:14:13;94140.50;;;5.46;83.25
56330;BME280;42236;48.058;10.632;2022-11-20T15:16:59;94140.53;;;5.37;83.09
56330;BME280;42236;48.058;10.632;2022-11-20T15:19:45;94139.00;;;5.27;83.31
56330;BME280;42236;48.058;10.632;2022-11-20T15:22:30;94137.09;;;5.19;83.28
56330;BME280;42236;48.058;10.632;2022-11-20T15:25:17;94136.50;;;5.13;83.22
56330;BME280;42236;48.058;10.632;2022-11-20T15:28:04;94136.03;;;5.11;83.28
56330;BME280;42236;48.058;10.632;2022-11-20T15:30:59;94136.34;;;5.10;83.38
56330;BME280;42236;48.058;10.632;2022-11-20T15:33:45;94130.19;;;5.09;83.39
56330;BME280;42236;48.058;10.632;2022-11-20T15:36:31;94126.44;;;5.10;83.25
56330;BME280;42236;48.058;10.632;2022-11-20T15:39:17;94135.38;;;5.14;83.24
56330;BME280;42236;48.058;10.632;2022-11-20T15:42:03;94139.34;;;5.17;83.24
56330;BME280;42236;48.058;10.632;2022-11-20T15:44:48;94133.66;;;5.19;82.99
56330;BME280;42236;48.058;10.632;2022-11-20T15:47:35;94137.91;;;5.20;83.10
56330;BME280;42236;48.058;10.632;2022-11-20T15:50:21;94140.59;;;5.20;83.17
56330;BME280;42236;48.058;10.632;2022-11-20T15:53:08;94124.19;;;5.21;83.17
56330;BME280;42236;48.058;10.632;2022-11-20T15:55:55;94115.72;;;5.19;82.90
56330;BME280;42236;48.058;10.632;2022-11-20T15:58:41;94118.25;;;5.16;83.24
56330;BME280;42236;48.058;10.632;2022-11-20T16:01:26;94114.63;;;5.11;83.05